Авиационная погода в Дашогузе

Регион: 
Погода METAR: 
UTAT 221800Z 11006KT 8000 NSC M07/M07 Q1026 R08/CLRD70 NOSIG
Время наблюдения
2022-01-22T18:00:00Z
Температура C
-7.0
Точка росы
-7.0
Направление ветра
110
Скорость ветра (узлы)
6
Метео видимость
4.97
Облачность
CLR
Нижняя граница облачности (футы)
Явления погоды
Условия полета
MVFR
CLR — нет облаков ниже 3000 м